createdAt,value
2018-06-11T00:02:29.540Z,27.03
2018-06-11T00:05:02.788Z,21.47
2018-06-11T00:07:35.420Z,15.90
2018-06-11T00:10:07.857Z,24.27
2018-06-11T00:12:40.427Z,15.87
2018-06-11T00:18:34.011Z,26.10
2018-06-11T00:21:06.655Z,25.30
2018-06-11T00:23:39.301Z,26.23
2018-06-11T00:26:11.903Z,29.87
2018-06-11T00:28:44.407Z,28.53
2018-06-11T00:31:18.079Z,20.60
2018-06-11T00:33:51.174Z,29.63
2018-06-11T00:36:23.830Z,23.63
2018-06-11T00:38:56.560Z,35.57
2018-06-11T00:41:29.486Z,29.63
2018-06-11T00:44:02.099Z,34.53
2018-06-11T00:46:36.498Z,45.60
2018-06-11T00:49:20.362Z,29.03
2018-06-11T00:51:53.175Z,27.97
2018-06-11T00:54:26.101Z,31.30
2018-06-11T00:56:58.927Z,25.97
2018-06-11T00:59:31.435Z,26.83
2018-06-11T01:02:04.785Z,38.13
2018-06-11T01:04:37.570Z,32.90
2018-06-11T01:07:10.537Z,19.27
2018-06-11T01:09:43.432Z,30.97
2018-06-11T01:12:16.700Z,22.87
2018-06-11T01:14:49.351Z,21.20
2018-06-11T01:17:21.976Z,25.30
2018-06-11T01:19:55.458Z,26.40
2018-06-11T01:22:28.407Z,26.27
2018-06-11T01:25:01.912Z,34.87
2018-06-11T01:27:35.258Z,28.20
2018-06-11T01:30:08.219Z,24.63
2018-06-11T01:32:40.894Z,18.57
2018-06-11T01:35:13.606Z,15.83
2018-06-11T01:37:46.327Z,22.67
2018-06-11T01:40:19.298Z,14.43
2018-06-11T01:42:51.929Z,23.17
2018-06-11T01:45:24.539Z,17.60
2018-06-11T01:47:57.210Z,59.10
2018-06-11T01:50:30.950Z,84.80
2018-06-11T01:53:04.307Z,43.97
2018-06-11T01:55:36.998Z,22.43
2018-06-11T01:58:12.684Z,40.53
2018-06-11T02:00:45.417Z,33.57
2018-06-11T02:03:18.102Z,43.77
2018-06-11T02:05:50.720Z,40.10
2018-06-11T02:08:24.488Z,22.17
2018-06-11T02:11:01.150Z,27.83
2018-06-11T02:13:34.229Z,34.30
2018-06-11T02:16:06.986Z,19.73
2018-06-11T02:18:39.699Z,18.50
2018-06-11T02:21:12.390Z,25.90
2018-06-11T02:23:46.972Z,25.77
2018-06-11T02:26:23.962Z,26.20
2018-06-11T02:28:55.401Z,33.17
2018-06-11T02:31:30.236Z,40.33
2018-06-11T02:34:04.018Z,28.53
2018-06-11T02:36:40.940Z,92.27
2018-06-11T02:39:16.972Z,28.97
2018-06-11T02:41:49.535Z,25.27
2018-06-11T02:47:46.416Z,22.57
2018-06-11T02:50:21.522Z,23.80
2018-06-11T02:53:02.005Z,25.27
2018-06-11T02:55:39.042Z,18.50
2018-06-11T02:58:12.762Z,33.70
2018-06-11T03:00:46.901Z,29.60
2018-06-11T03:03:21.016Z,31.57
2018-06-11T03:05:53.602Z,29.53
2018-06-11T03:08:27.752Z,24.17
2018-06-11T03:14:21.607Z,35.27
2018-06-11T03:16:55.878Z,20.57
2018-06-11T03:22:15.992Z,23.27
2018-06-11T03:24:50.689Z,31.90
2018-06-11T03:27:24.681Z,35.23
2018-06-11T03:29:59.396Z,20.23
2018-06-11T03:32:33.382Z,21.63
2018-06-11T03:35:12.799Z,24.53
2018-06-11T03:37:45.394Z,28.97
2018-06-11T03:40:19.826Z,31.47
2018-06-11T03:42:53.581Z,21.23
2018-06-11T03:45:27.755Z,33.13
2018-06-11T03:48:00.571Z,29.60
2018-06-11T03:50:34.277Z,30.00
2018-06-11T03:53:07.340Z,38.40
2018-06-11T03:55:41.264Z,23.67
2018-06-11T03:58:14.567Z,24.37
2018-06-11T04:00:47.302Z,28.03
2018-06-11T04:03:26.996Z,26.67
2018-06-11T04:06:06.570Z,23.07
2018-06-11T04:08:43.359Z,32.80
2018-06-11T04:11:18.279Z,25.43
2018-06-11T04:16:35.802Z,26.80
2018-06-11T04:19:14.835Z,34.60
2018-06-11T04:21:52.948Z,27.73
2018-06-11T04:24:26.668Z,29.97
2018-06-11T04:26:59.543Z,32.43
2018-06-11T04:29:34.870Z,31.83
2018-06-11T04:32:13.286Z,29.87
2018-06-11T04:34:49.063Z,30.77
2018-06-11T04:37:32.581Z,24.87
2018-06-11T04:40:06.399Z,31.60
2018-06-11T04:42:39.286Z,31.43
2018-06-11T04:45:12.666Z,24.73
2018-06-11T04:47:45.394Z,32.90
2018-06-11T04:50:18.083Z,24.70
2018-06-11T04:52:50.899Z,25.40
2018-06-11T04:55:23.848Z,31.93
2018-06-11T04:57:56.586Z,27.57
2018-06-11T05:00:29.458Z,25.57
2018-06-11T05:03:02.832Z,26.30
2018-06-11T05:05:35.695Z,31.70
2018-06-11T05:08:08.695Z,29.03
2018-06-11T05:10:42.218Z,28.37
2018-06-11T05:13:14.935Z,26.87
2018-06-11T05:15:47.606Z,22.10
2018-06-11T05:18:20.481Z,24.80
2018-06-11T05:24:24.225Z,26.37
2018-06-11T05:26:56.780Z,33.23
2018-06-11T05:29:30.752Z,27.57
2018-06-11T05:32:03.293Z,28.10
2018-06-11T05:34:37.169Z,23.33
2018-06-11T05:37:09.647Z,27.00
2018-06-11T05:39:42.173Z,26.80
2018-06-11T05:45:35.547Z,31.37
2018-06-11T05:48:08.126Z,41.27
2018-06-11T05:50:41.785Z,37.57
2018-06-11T05:53:14.677Z,43.80
2018-06-11T05:55:47.641Z,44.73
2018-06-11T05:58:21.039Z,35.63
2018-06-11T06:00:54.608Z,31.47
2018-06-11T06:03:27.556Z,30.70
2018-06-11T06:06:00.467Z,36.50
2018-06-11T06:08:33.270Z,31.97
2018-06-11T06:11:05.858Z,42.87
2018-06-11T06:13:39.462Z,36.87
2018-06-11T06:16:36.468Z,32.13
2018-06-11T06:19:09.477Z,38.70
2018-06-11T06:21:42.387Z,41.43
2018-06-11T06:27:36.568Z,33.80
2018-06-11T06:30:09.457Z,44.17
2018-06-11T06:36:02.726Z,38.23
2018-06-11T06:38:35.431Z,51.67
2018-06-11T06:44:29.162Z,50.37
2018-06-11T06:47:01.992Z,43.47
2018-06-11T06:52:41.607Z,40.43
2018-06-11T06:55:14.586Z,41.40
2018-06-11T07:01:07.825Z,45.77
2018-06-11T07:03:40.451Z,49.37
2018-06-11T07:06:13.401Z,36.57
2018-06-11T07:08:45.963Z,43.23
2018-06-11T07:11:18.814Z,35.30
2018-06-11T07:13:51.783Z,43.37
2018-06-11T07:16:24.317Z,31.37
2018-06-11T07:18:57.151Z,37.63
2018-06-11T07:21:29.878Z,33.20
2018-06-11T07:24:02.429Z,36.87
2018-06-11T07:26:35.114Z,34.63
2018-06-11T07:29:07.717Z,38.90
2018-06-11T07:31:38.817Z,46.83
2018-06-11T07:34:12.157Z,48.47
2018-06-11T07:36:44.741Z,36.67
2018-06-11T07:39:17.490Z,45.53
2018-06-11T07:41:50.429Z,42.93
2018-06-11T07:44:23.221Z,48.97
2018-06-11T07:46:55.749Z,40.23
2018-06-11T07:49:28.239Z,39.37
2018-06-11T07:52:00.999Z,32.40
2018-06-11T07:54:34.177Z,38.80
2018-06-11T07:57:06.951Z,41.40
2018-06-11T07:59:39.820Z,39.87
2018-06-11T08:02:12.456Z,42.53
2018-06-11T08:04:44.998Z,35.33
2018-06-11T08:07:17.618Z,38.97
2018-06-11T08:09:50.375Z,150.50
2018-06-11T08:12:23.102Z,87.13
2018-06-11T08:14:55.890Z,64.17
2018-06-11T08:17:28.548Z,67.63
2018-06-11T08:20:01.192Z,73.33
2018-06-11T08:22:33.840Z,52.20
2018-06-11T08:25:06.481Z,44.17
2018-06-11T08:27:39.225Z,51.77
2018-06-11T08:30:11.649Z,45.80
2018-06-11T08:32:44.423Z,44.13
2018-06-11T08:35:17.337Z,44.47
2018-06-11T08:37:50.118Z,46.80
2018-06-11T08:40:22.770Z,44.00
2018-06-11T08:42:55.477Z,39.00
2018-06-11T08:45:28.243Z,39.37
2018-06-11T08:48:00.980Z,33.53
2018-06-11T08:50:33.702Z,38.60
2018-06-11T08:53:06.434Z,40.90
2018-06-11T08:55:39.008Z,40.23
2018-06-11T08:58:11.553Z,39.83
2018-06-11T09:00:44.151Z,38.97
2018-06-11T09:03:16.973Z,42.50
2018-06-11T09:05:49.682Z,35.47
2018-06-11T09:08:22.714Z,39.93
2018-06-11T09:10:55.518Z,35.17
2018-06-11T09:13:28.129Z,34.83
2018-06-11T09:16:01.320Z,34.93
2018-06-11T09:18:34.750Z,37.80
2018-06-11T09:24:29.018Z,41.70
2018-06-11T09:27:01.630Z,38.90
2018-06-11T09:29:34.315Z,29.63
2018-06-11T09:32:06.919Z,32.47
2018-06-11T09:34:39.790Z,40.47
2018-06-11T09:37:12.567Z,37.30
2018-06-11T09:42:52.041Z,40.87
2018-06-11T09:45:24.802Z,43.70
2018-06-11T09:47:57.390Z,45.07
2018-06-11T09:50:29.854Z,46.93
2018-06-11T09:53:02.374Z,40.33
2018-06-11T09:56:18.803Z,35.83
2018-06-11T09:58:51.375Z,40.87
2018-06-11T10:01:23.886Z,39.63
2018-06-11T10:03:56.518Z,34.80
2018-06-11T10:06:29.118Z,29.13
2018-06-11T10:09:01.710Z,33.87
2018-06-11T10:11:34.304Z,31.73
2018-06-11T10:17:28.017Z,32.83
2018-06-11T10:20:00.555Z,31.17
2018-06-11T10:22:33.067Z,36.97
2018-06-11T10:28:26.773Z,28.37
2018-06-11T10:30:59.372Z,32.23
2018-06-11T10:33:31.734Z,27.30
2018-06-11T10:36:03.968Z,38.53
2018-06-11T10:38:36.802Z,38.30
2018-06-11T10:41:08.688Z,35.10
2018-06-11T10:43:40.981Z,35.13
2018-06-11T10:46:13.324Z,31.07
2018-06-11T10:48:46.081Z,35.40
2018-06-11T10:51:18.838Z,40.77
2018-06-11T10:53:51.425Z,37.67
2018-06-11T10:56:23.938Z,28.47
2018-06-11T10:58:56.428Z,35.63
2018-06-11T11:01:29.054Z,34.57
2018-06-11T11:04:01.501Z,47.33
2018-06-11T11:06:34.174Z,41.77
2018-06-11T11:09:07.787Z,38.47
2018-06-11T11:11:40.160Z,30.77
2018-06-11T11:14:12.477Z,29.00
2018-06-11T11:16:44.822Z,33.70
2018-06-11T11:19:17.220Z,33.60
2018-06-11T11:21:49.498Z,35.87
2018-06-11T11:24:22.016Z,33.87
2018-06-11T11:26:54.504Z,28.43
2018-06-11T11:29:26.836Z,35.50
2018-06-11T11:31:59.071Z,36.97
2018-06-11T11:34:31.487Z,34.93
2018-06-11T11:40:36.827Z,35.63
2018-06-11T11:43:09.894Z,32.33
2018-06-11T11:45:44.746Z,43.90
2018-06-11T11:48:17.932Z,31.37
2018-06-11T11:50:50.557Z,35.10
2018-06-11T11:53:23.282Z,32.80
2018-06-11T11:55:55.667Z,31.53
2018-06-11T11:58:28.550Z,36.53
2018-06-11T12:01:01.509Z,26.90
2018-06-11T12:03:47.334Z,26.63
2018-06-11T12:06:20.839Z,27.60
2018-06-11T12:08:53.708Z,25.30
2018-06-11T12:11:27.235Z,26.27
2018-06-11T12:14:03.942Z,32.10
2018-06-11T12:16:37.025Z,30.47
2018-06-11T12:19:10.424Z,30.53
2018-06-11T12:21:44.019Z,34.17
2018-06-11T12:24:17.551Z,32.33
2018-06-11T12:26:50.094Z,37.63
2018-06-11T12:32:57.599Z,27.90
2018-06-11T12:35:30.160Z,26.43
2018-06-11T12:38:02.645Z,23.47
2018-06-11T12:40:35.132Z,30.77
2018-06-11T12:43:09.265Z,28.20
2018-06-11T12:45:41.610Z,24.57
2018-06-11T12:48:14.380Z,27.07
2018-06-11T12:50:46.647Z,31.93
2018-06-11T12:53:24.322Z,25.03
2018-06-11T12:55:59.362Z,27.17
2018-06-11T12:58:31.867Z,29.63
2018-06-11T13:01:04.794Z,27.43
2018-06-11T13:03:39.314Z,24.30
2018-06-11T13:06:18.934Z,24.50
2018-06-11T13:12:18.517Z,25.07
2018-06-11T13:15:26.060Z,30.10
2018-06-11T13:18:00.890Z,25.43
2018-06-11T13:23:54.573Z,36.80
2018-06-11T13:26:30.899Z,31.37
2018-06-11T13:29:05.886Z,30.07
2018-06-11T13:31:41.504Z,26.13
2018-06-11T13:34:18.389Z,31.97
2018-06-11T13:36:52.850Z,30.03
2018-06-11T13:39:26.245Z,26.13
2018-06-11T13:42:01.719Z,25.23
2018-06-11T13:44:37.185Z,25.67
2018-06-11T13:47:10.313Z,23.93
2018-06-11T13:49:53.642Z,27.30
2018-06-11T13:55:55.278Z,26.30
2018-06-11T13:58:32.967Z,32.63
2018-06-11T14:01:12.259Z,27.13
2018-06-11T14:03:45.609Z,28.57
2018-06-11T14:06:18.508Z,22.50
2018-06-11T14:08:51.515Z,24.43
2018-06-11T14:11:24.290Z,26.87
2018-06-11T14:13:56.853Z,33.53
2018-06-11T14:16:29.577Z,26.73
2018-06-11T14:19:03.922Z,27.93
2018-06-11T14:24:54.797Z,31.90
2018-06-11T14:27:30.897Z,30.35
2018-06-11T14:30:04.244Z,26.60
2018-06-11T14:39:01.483Z,23.83
2018-06-11T14:41:33.959Z,23.67
2018-06-11T14:44:06.419Z,18.37
2018-06-11T14:46:40.704Z,27.73
2018-06-11T14:49:14.401Z,24.80
2018-06-11T14:51:47.837Z,22.42
2018-06-11T14:54:21.482Z,24.30
2018-06-11T14:56:54.541Z,24.82
2018-06-11T14:59:34.021Z,30.65
2018-06-11T15:02:06.970Z,26.50
2018-06-11T15:04:42.533Z,22.37
2018-06-11T15:10:16.361Z,23.12
2018-06-11T15:12:54.182Z,29.72
2018-06-11T15:15:29.574Z,18.05
2018-06-11T15:18:02.443Z,20.90
2018-06-11T15:20:35.496Z,25.20
2018-06-11T15:23:14.849Z,29.20
2018-06-11T15:25:47.758Z,24.52
2018-06-11T15:28:20.576Z,24.02
2018-06-11T15:31:18.755Z,22.10
2018-06-11T15:33:52.888Z,29.25
2018-06-11T15:36:58.739Z,25.88
2018-06-11T15:39:58.827Z,20.55
2018-06-11T15:42:39.775Z,27.80
2018-06-11T15:45:20.407Z,20.50
2018-06-11T15:47:53.781Z,25.77
2018-06-11T15:50:29.281Z,21.15
2018-06-11T15:53:03.997Z,22.45
2018-06-11T15:55:37.784Z,25.12
2018-06-11T15:58:20.032Z,24.00
2018-06-11T16:00:56.190Z,22.48
2018-06-11T16:03:32.098Z,25.95
2018-06-11T16:06:07.918Z,22.93
2018-06-11T16:08:42.230Z,22.42
2018-06-11T16:14:37.181Z,22.67
2018-06-11T16:17:12.606Z,23.67
2018-06-11T16:19:45.447Z,32.48
2018-06-11T16:22:19.746Z,31.57
2018-06-11T16:24:52.592Z,26.02
2018-06-11T16:27:25.282Z,30.52
2018-06-11T16:29:58.367Z,33.28
2018-06-11T16:32:31.330Z,34.23
2018-06-11T16:35:04.356Z,27.37
2018-06-11T16:37:37.638Z,34.90
2018-06-11T16:40:11.611Z,26.07
2018-06-11T16:42:47.697Z,95.03
2018-06-11T16:45:21.366Z,46.75
2018-06-11T16:51:23.051Z,33.60
2018-06-11T16:53:57.678Z,33.73
2018-06-11T16:56:34.803Z,36.97
2018-06-11T16:59:19.011Z,32.78
2018-06-11T17:01:53.004Z,35.08
2018-06-11T17:04:30.870Z,39.75
2018-06-11T17:07:08.603Z,30.77
2018-06-11T17:16:24.595Z,32.90
2018-06-11T17:19:15.304Z,30.37
2018-06-11T17:24:38.570Z,31.95
2018-06-11T17:27:18.228Z,27.70
2018-06-11T17:30:05.343Z,33.80
2018-06-11T17:32:40.886Z,31.62
2018-06-11T17:35:14.679Z,38.95
2018-06-11T17:37:52.854Z,42.67
2018-06-11T17:40:27.203Z,35.15
2018-06-11T17:43:08.470Z,22.95
2018-06-11T17:45:46.712Z,24.45
2018-06-11T17:48:23.131Z,32.28
2018-06-11T17:50:58.581Z,26.70
2018-06-11T17:53:38.272Z,28.38
2018-06-11T17:56:14.326Z,20.63
2018-06-11T17:58:49.934Z,17.83
2018-06-11T18:01:22.935Z,22.30
2018-06-11T18:03:57.550Z,35.73
2018-06-11T18:06:33.429Z,33.93
2018-06-11T18:09:12.502Z,32.57
2018-06-11T18:11:45.367Z,28.23
2018-06-11T18:14:31.320Z,25.70
2018-06-11T18:17:05.978Z,26.27
2018-06-11T18:22:20.600Z,34.53
2018-06-11T18:24:53.806Z,32.67
2018-06-11T18:27:26.987Z,24.57
2018-06-11T18:30:03.436Z,33.13
2018-06-11T18:32:40.261Z,32.00
2018-06-11T18:35:14.894Z,37.37
2018-06-11T18:37:47.549Z,38.83
2018-06-11T18:40:22.042Z,48.47
2018-06-11T18:42:54.940Z,44.00
2018-06-11T18:45:28.340Z,49.43
2018-06-11T18:48:01.851Z,46.50
2018-06-11T18:50:35.063Z,50.47
2018-06-11T18:53:12.684Z,48.57
2018-06-11T18:55:49.693Z,69.80
2018-06-11T18:58:22.530Z,37.03
2018-06-11T19:00:55.793Z,67.97
2018-06-11T19:03:28.666Z,38.33
2018-06-11T19:09:27.864Z,40.20
2018-06-11T19:12:03.788Z,41.03
2018-06-11T19:14:44.335Z,58.87
2018-06-11T19:17:24.650Z,43.77
2018-06-11T19:20:15.384Z,47.07
2018-06-11T19:23:05.150Z,58.63
2018-06-11T19:25:59.498Z,53.10
2018-06-11T19:28:57.651Z,50.40
2018-06-11T19:31:57.019Z,39.07
2018-06-11T19:38:06.500Z,60.53
2018-06-11T19:40:39.916Z,68.93
2018-06-11T19:43:12.915Z,50.23
2018-06-11T19:46:11.045Z,41.43
2018-06-11T19:48:49.260Z,40.73
2018-06-11T19:51:27.002Z,45.30
2018-06-11T19:54:11.791Z,40.83
2018-06-11T19:56:46.548Z,40.93
2018-06-11T19:59:21.402Z,39.63
2018-06-11T20:02:00.128Z,40.73
2018-06-11T20:05:02.384Z,37.43
2018-06-11T20:34:08.165Z,26.70
2018-06-11T20:36:41.066Z,23.60
2018-06-11T20:39:13.897Z,21.10
2018-06-11T20:41:49.396Z,14.47
2018-06-11T20:44:22.075Z,16.70
2018-06-11T20:46:54.931Z,14.73
2018-06-11T20:49:27.725Z,15.10
2018-06-11T20:52:00.303Z,28.10
2018-06-11T20:54:32.897Z,21.13
2018-06-11T20:57:05.527Z,18.73
2018-06-11T20:59:38.030Z,24.63
2018-06-11T21:02:10.296Z,23.77
2018-06-11T21:08:04.861Z,26.30
2018-06-11T21:10:37.811Z,24.33
2018-06-11T21:13:11.199Z,27.13
2018-06-11T21:15:44.762Z,38.63
2018-06-11T21:18:17.756Z,31.67
2018-06-11T21:20:50.878Z,26.90
2018-06-11T21:23:24.322Z,26.57
2018-06-11T21:25:57.241Z,23.63
2018-06-11T21:31:50.615Z,16.73
2018-06-11T21:34:23.015Z,17.83
2018-06-11T21:36:55.671Z,43.13
2018-06-11T21:39:28.310Z,31.27
2018-06-11T21:41:59.619Z,32.67
2018-06-11T21:44:34.309Z,37.63
2018-06-11T21:47:09.258Z,68.20
2018-06-11T21:49:48.184Z,100.57
2018-06-11T21:52:24.070Z,81.23
2018-06-11T21:55:00.225Z,87.57
2018-06-11T21:57:35.773Z,80.27
2018-06-11T22:00:12.325Z,112.30
2018-06-11T22:02:47.970Z,183.27
2018-06-11T22:05:20.612Z,123.27
2018-06-11T22:07:56.506Z,66.33
2018-06-11T22:10:29.995Z,59.53
2018-06-11T22:13:13.881Z,62.10
2018-06-11T22:15:46.290Z,80.93
2018-06-11T22:18:18.776Z,66.20
2018-06-11T22:20:51.494Z,67.80
2018-06-11T22:23:23.999Z,71.23
2018-06-11T22:25:56.390Z,69.30
2018-06-11T22:28:28.848Z,46.50
2018-06-11T22:31:01.735Z,23.40
2018-06-11T22:33:34.055Z,28.50
2018-06-11T22:36:07.319Z,21.73
2018-06-11T22:38:40.029Z,23.90
2018-06-11T22:41:12.522Z,21.10
2018-06-11T22:43:45.276Z,15.10
2018-06-11T22:46:17.738Z,23.10
2018-06-11T22:48:50.275Z,13.67
2018-06-11T22:51:22.882Z,12.83
2018-06-11T22:53:55.459Z,11.23
2018-06-11T22:56:27.708Z,7.63
2018-06-11T22:59:00.169Z,7.70
2018-06-11T23:01:32.703Z,7.60
2018-06-11T23:04:05.285Z,9.40
2018-06-11T23:06:37.624Z,7.57
2018-06-11T23:09:10.954Z,8.83
2018-06-11T23:11:43.573Z,11.00
2018-06-11T23:14:16.134Z,7.60
2018-06-11T23:16:48.553Z,13.27
2018-06-11T23:19:21.815Z,8.50
2018-06-11T23:21:54.403Z,6.27
2018-06-11T23:24:26.896Z,10.20
2018-06-11T23:27:00.467Z,6.60
2018-06-11T23:29:32.706Z,14.57
2018-06-11T23:32:05.427Z,15.10
2018-06-11T23:34:38.959Z,12.03
2018-06-11T23:37:11.346Z,6.70
2018-06-11T23:39:43.831Z,11.30
2018-06-11T23:42:16.891Z,14.30
2018-06-11T23:44:49.087Z,11.70
2018-06-11T23:47:22.112Z,14.80
2018-06-11T23:49:54.544Z,14.20
2018-06-11T23:53:05.369Z,21.63
2018-06-11T23:55:38.171Z,43.77
2018-06-11T23:58:10.669Z,43.80
